Stanton, Michigan
Current Conditions -  °F | °C
As of 12:33 PM on Saturday 25 Oct 2014 (Local Time) from KAMN Reporting Station
Clear Clear  
Wind Chill: 63°   Ceiling: Unl
Heat Index: 63°   Visibility: 10mi
Dew Point: 47°   Wind: 16mph
Humidity: 57%   Direction: 280°W
Pressure: 29.78"   Gusts: 24mph
Location:  43.29°N, 85.08°W
Report Text: KAMN 251633Z AUTO 28014G21KT 10SM CLR 17/09 A2978 RMK AO2 T01720085
Loading
Personal Weather Stations






























Interactive Weather Map New forecast layout! Learn more

10-Day Weather Forecast

Advertisements
Track Severe Weather on mobile